createdAt,value
2023-01-02T00:01:05.679Z,100521.63
2023-01-02T00:03:32.525Z,100517.31
2023-01-02T00:06:03.053Z,100510.34
2023-01-02T00:08:29.578Z,100492.97
2023-01-02T00:10:57.143Z,100493.00
2023-01-02T00:13:23.892Z,100498.22
2023-01-02T00:15:50.470Z,100487.78
2023-01-02T00:18:17.968Z,100491.25
2023-01-02T00:20:44.539Z,100479.94
2023-01-02T00:23:11.116Z,100486.03
2023-01-02T00:25:37.744Z,100474.69
2023-01-02T00:28:04.598Z,100479.91
2023-01-02T00:30:38.044Z,100477.31
2023-01-02T00:33:06.470Z,100473.00
2023-01-02T00:35:33.459Z,100472.09
2023-01-02T00:38:00.055Z,100461.66
2023-01-02T00:40:26.632Z,100466.88
2023-01-02T00:42:53.244Z,100465.09
2023-01-02T00:45:19.775Z,100465.09
2023-01-02T00:47:46.362Z,100466.03
2023-01-02T00:50:13.088Z,100466.06
2023-01-02T00:52:39.594Z,100466.06
2023-01-02T00:55:06.398Z,100459.09
2023-01-02T00:57:32.958Z,100462.56
2023-01-02T00:59:59.476Z,100460.81
2023-01-02T01:02:26.290Z,100451.25
2023-01-02T01:04:53.027Z,100448.66
2023-01-02T01:07:19.546Z,100463.44
2023-01-02T01:09:46.127Z,100459.97
2023-01-02T01:12:12.686Z,100458.25
2023-01-02T01:14:39.281Z,100458.25
2023-01-02T01:17:05.908Z,100454.75
2023-01-02T01:19:34.811Z,100457.38
2023-01-02T01:22:02.034Z,100453.84
2023-01-02T01:24:28.708Z,100452.16
2023-01-02T01:26:55.262Z,100457.38
2023-01-02T01:29:21.987Z,100466.88
2023-01-02T01:31:48.613Z,100459.94
2023-01-02T01:34:15.465Z,100456.50
2023-01-02T01:36:41.947Z,100466.94
2023-01-02T01:39:08.534Z,100455.72
2023-01-02T01:41:35.130Z,100445.25
2023-01-02T01:44:03.082Z,100436.56
2023-01-02T01:46:41.778Z,100443.53
2023-01-02T01:49:11.476Z,100449.59
2023-01-02T01:51:50.623Z,100453.09
2023-01-02T01:54:23.066Z,100442.66
2023-01-02T01:56:55.911Z,100449.63
2023-01-02T01:59:22.616Z,100449.59
2023-01-02T02:01:51.018Z,100456.59
2023-01-02T02:04:21.258Z,100448.75
2023-01-02T02:06:49.912Z,100440.91
2023-01-02T02:09:25.868Z,100447.88
2023-01-02T02:11:55.280Z,100451.34
2023-01-02T02:14:22.279Z,100439.16
2023-01-02T02:17:09.652Z,100442.66
2023-01-02T02:19:58.081Z,100444.38
2023-01-02T02:23:04.174Z,100441.75
2023-01-02T02:25:36.447Z,100440.00
2023-01-02T02:28:28.834Z,100439.13
2023-01-02T02:31:04.126Z,100443.47
2023-01-02T02:33:59.843Z,100445.19
2023-01-02T02:36:38.244Z,100441.66
2023-01-02T02:39:25.041Z,100445.19
2023-01-02T02:42:03.623Z,100431.22
2023-01-02T02:44:48.179Z,100431.19
2023-01-02T02:47:39.444Z,100431.19
2023-01-02T02:50:13.635Z,100439.88
2023-01-02T02:52:47.409Z,100438.13
2023-01-02T02:55:23.016Z,100444.25
2023-01-02T02:57:51.470Z,100439.94
2023-01-02T03:00:20.037Z,100437.28
2023-01-02T03:02:46.764Z,100435.56
2023-01-02T03:05:21.621Z,100430.28
2023-01-02T03:08:01.655Z,100432.06
2023-01-02T03:10:39.831Z,100428.56
2023-01-02T03:13:18.643Z,100432.06
2023-01-02T03:16:07.856Z,100432.09
2023-01-02T03:18:55.546Z,100430.41
2023-01-02T03:21:31.724Z,100429.53
2023-01-02T03:24:02.571Z,100424.34
2023-01-02T03:26:32.810Z,100420.88
2023-01-02T03:29:05.039Z,100414.75
2023-01-02T03:31:36.954Z,100420.03
2023-01-02T03:34:18.027Z,100421.75
2023-01-02T03:36:50.433Z,100423.47
2023-01-02T03:39:20.701Z,100435.69
2023-01-02T03:41:55.695Z,100426.94
2023-01-02T03:44:25.909Z,100428.69
2023-01-02T03:47:17.611Z,100426.09
2023-01-02T03:49:51.268Z,100419.97
2023-01-02T03:52:24.088Z,100406.03
2023-01-02T03:54:53.604Z,100401.69
2023-01-02T03:57:34.168Z,100398.22
2023-01-02T04:00:07.408Z,100397.38
2023-01-02T04:02:42.484Z,100404.31
2023-01-02T04:05:27.739Z,100408.63
2023-01-02T04:08:04.299Z,100415.59
2023-01-02T04:10:37.532Z,100419.09
2023-01-02T04:13:13.071Z,100428.69
2023-01-02T04:15:41.879Z,100436.50
2023-01-02T04:18:20.174Z,100446.97
2023-01-02T04:20:50.970Z,100458.28
2023-01-02T04:23:24.236Z,100449.56
2023-01-02T04:26:00.053Z,100452.16
2023-01-02T04:28:30.427Z,100448.69
2023-01-02T04:31:27.844Z,100452.19
2023-01-02T04:34:00.234Z,100446.13
2023-01-02T04:36:27.315Z,100435.63
2023-01-02T04:38:54.159Z,100442.59
2023-01-02T04:41:29.499Z,100451.34
2023-01-02T04:43:56.901Z,100445.22
2023-01-02T04:46:24.902Z,100453.94
2023-01-02T04:48:51.941Z,100450.47
2023-01-02T04:51:18.832Z,100447.00
2023-01-02T04:53:48.465Z,100448.72
2023-01-02T04:56:15.076Z,100454.81
2023-01-02T04:58:43.430Z,100460.03
2023-01-02T05:01:15.962Z,100454.84
2023-01-02T05:03:45.018Z,100458.31
2023-01-02T05:06:12.475Z,100450.50
2023-01-02T05:08:39.843Z,100444.38
2023-01-02T05:11:11.246Z,100444.38
2023-01-02T05:13:37.844Z,100441.78
2023-01-02T05:16:04.988Z,100447.84
2023-01-02T05:18:32.212Z,100447.88
2023-01-02T05:21:04.756Z,100436.53
2023-01-02T05:23:49.683Z,100447.84
2023-01-02T05:26:17.776Z,100448.72
2023-01-02T05:28:44.997Z,100455.69
2023-01-02T05:31:12.224Z,100463.53
2023-01-02T05:33:38.913Z,100460.91
2023-01-02T05:36:07.307Z,100450.47
2023-01-02T05:38:35.427Z,100462.66
2023-01-02T05:41:04.567Z,100471.38
2023-01-02T05:43:32.557Z,100479.22
2023-01-02T05:45:59.555Z,100474.84
2023-01-02T05:48:27.917Z,100477.47
2023-01-02T05:50:54.480Z,100475.75
2023-01-02T05:53:21.075Z,100477.47
2023-01-02T05:55:47.664Z,100480.94
2023-01-02T05:58:14.205Z,100476.59
2023-01-02T06:00:40.988Z,100469.63
2023-01-02T06:03:07.614Z,100473.09
2023-01-02T06:05:34.921Z,100470.50
2023-01-02T06:08:01.656Z,100473.97
2023-01-02T06:10:28.537Z,100474.84
2023-01-02T06:12:55.140Z,100476.59
2023-01-02T06:15:22.060Z,100474.81
2023-01-02T06:17:48.747Z,100477.44
2023-01-02T06:20:15.453Z,100482.66
2023-01-02T06:22:43.226Z,100478.28
2023-01-02T06:25:10.015Z,100474.78
2023-01-02T06:27:36.625Z,100472.22
2023-01-02T06:30:03.375Z,100469.63
2023-01-02T06:32:29.914Z,100481.75
2023-01-02T06:34:56.560Z,100480.94
2023-01-02T06:37:23.107Z,100481.78
2023-01-02T06:39:49.631Z,100487.03
2023-01-02T06:42:22.248Z,100491.34
2023-01-02T06:44:48.843Z,100497.50
2023-01-02T06:47:15.437Z,100491.38
2023-01-02T06:49:42.002Z,100501.81
2023-01-02T06:52:08.562Z,100492.25
2023-01-02T06:54:35.207Z,100495.72
2023-01-02T06:57:02.025Z,100491.38
2023-01-02T06:59:28.637Z,100482.63
2023-01-02T07:01:55.489Z,100497.44
2023-01-02T07:04:22.216Z,100493.09
2023-01-02T07:06:48.921Z,100484.41
2023-01-02T07:09:15.635Z,100485.28
2023-01-02T07:11:42.250Z,100477.41
2023-01-02T07:14:08.859Z,100486.97
2023-01-02T07:16:35.441Z,100500.09
2023-01-02T07:19:02.050Z,100498.31
2023-01-02T07:21:30.592Z,100494.81
2023-01-02T07:23:57.138Z,100500.91
2023-01-02T07:26:23.775Z,100506.16
2023-01-02T07:28:50.415Z,100506.13
2023-01-02T07:31:19.004Z,100514.84
2023-01-02T07:33:46.284Z,100512.22
2023-01-02T07:36:19.896Z,100505.28
2023-01-02T07:38:53.483Z,100515.72
2023-01-02T07:41:23.021Z,100525.28
2023-01-02T07:43:49.833Z,100526.16
2023-01-02T07:46:19.423Z,100521.81
2023-01-02T07:48:46.809Z,100522.69
2023-01-02T07:51:16.512Z,100533.16
2023-01-02T07:53:46.304Z,100530.53
2023-01-02T07:56:12.908Z,100531.41
2023-01-02T07:58:39.697Z,100543.59
2023-01-02T08:01:08.778Z,100548.84
2023-01-02T08:03:36.059Z,100545.34
2023-01-02T08:06:22.956Z,100556.69
2023-01-02T08:08:49.525Z,100556.66
2023-01-02T08:11:19.878Z,100561.06
2023-01-02T08:13:46.559Z,100568.00
2023-01-02T08:16:15.732Z,100574.97
2023-01-02T08:18:42.711Z,100572.38
2023-01-02T08:21:10.239Z,100567.13
2023-01-02T08:23:37.364Z,100570.63
2023-01-02T08:26:06.533Z,100584.53
2023-01-02T08:28:34.349Z,100574.94
2023-01-02T08:31:01.120Z,100571.47
2023-01-02T08:33:28.135Z,100576.72
2023-01-02T08:35:55.562Z,100573.25
2023-01-02T08:38:22.127Z,100586.28
2023-01-02T08:40:48.791Z,100587.19
2023-01-02T08:43:16.348Z,100599.34
2023-01-02T08:45:43.151Z,100594.13
2023-01-02T08:48:20.606Z,100601.09
2023-01-02T08:50:48.664Z,100607.22
2023-01-02T08:53:15.323Z,100613.28
2023-01-02T08:55:41.838Z,100611.53
2023-01-02T08:58:08.382Z,100619.38
2023-01-02T09:00:35.071Z,100621.06
2023-01-02T09:03:02.013Z,100626.31
2023-01-02T09:05:30.895Z,100628.94
2023-01-02T09:07:58.667Z,100633.34
2023-01-02T09:10:25.784Z,100653.34
2023-01-02T09:12:53.106Z,100646.38
2023-01-02T09:15:20.060Z,100649.84
2023-01-02T09:17:46.557Z,100649.00
2023-01-02T09:20:13.381Z,100654.22
2023-01-02T09:22:40.673Z,100651.56
2023-01-02T09:25:08.303Z,100668.97
2023-01-02T09:27:36.235Z,100667.28
2023-01-02T09:30:02.908Z,100670.78
2023-01-02T09:32:30.466Z,100671.63
2023-01-02T09:34:57.008Z,100687.34
2023-01-02T09:37:23.583Z,100686.47
2023-01-02T09:39:50.114Z,100693.38
2023-01-02T09:42:17.736Z,100687.31
2023-01-02T09:45:00.471Z,100699.47
2023-01-02T09:47:31.898Z,100692.53
2023-01-02T09:50:04.165Z,100696.00
2023-01-02T09:52:35.402Z,100710.75
2023-01-02T09:55:02.205Z,100710.72
2023-01-02T09:57:28.740Z,100722.75
2023-01-02T10:00:06.114Z,100726.25
2023-01-02T10:02:55.337Z,100730.63
2023-01-02T10:05:33.313Z,100734.13
2023-01-02T10:08:17.989Z,100731.44
2023-01-02T10:10:55.698Z,100741.88
2023-01-02T10:14:08.447Z,100744.38
2023-01-02T10:16:24.110Z,100738.41
2023-01-02T10:18:53.707Z,100741.78
2023-01-02T10:21:28.730Z,100732.19
2023-01-02T10:24:02.598Z,100735.66
2023-01-02T10:26:35.494Z,100762.44
2023-01-02T10:29:25.534Z,100772.16
2023-01-02T10:32:00.141Z,100782.28
2023-01-02T10:34:37.387Z,100780.53
2023-01-02T10:37:12.673Z,100792.56
2023-01-02T10:39:41.383Z,100799.38
2023-01-02T10:42:12.333Z,100804.75
2023-01-02T10:44:40.293Z,100802.72
2023-01-02T10:47:27.399Z,100817.31
2023-01-02T10:49:54.492Z,100824.25
2023-01-02T10:52:35.487Z,100832.34
2023-01-02T10:55:03.062Z,100833.97
2023-01-02T10:57:46.270Z,100828.53
2023-01-02T11:00:24.047Z,100834.50
2023-01-02T11:03:00.270Z,100823.38
2023-01-02T11:05:29.835Z,100829.47
2023-01-02T11:07:57.726Z,100838.16
2023-01-02T11:10:32.680Z,100841.53
2023-01-02T11:13:03.713Z,100849.22
2023-01-02T11:15:34.713Z,100851.63
2023-01-02T11:18:11.354Z,100846.94
2023-01-02T11:20:38.237Z,100853.06
2023-01-02T11:23:06.107Z,100858.94
2023-01-02T11:25:39.453Z,100861.47
2023-01-02T11:28:13.248Z,100850.91
2023-01-02T11:30:45.079Z,100857.16
2023-01-02T11:33:14.361Z,100847.78
2023-01-02T11:35:50.522Z,100862.41
2023-01-02T11:38:29.674Z,100855.66
2023-01-02T11:41:00.583Z,100861.72
2023-01-02T11:43:52.541Z,100861.69
2023-01-02T11:46:32.473Z,100863.06
2023-01-02T11:49:04.933Z,100861.41
2023-01-02T11:51:35.162Z,100867.91
2023-01-02T11:54:06.944Z,100872.19
2023-01-02T11:56:37.365Z,100877.53
2023-01-02T11:59:19.429Z,100880.00
2023-01-02T12:01:49.099Z,100885.25
2023-01-02T12:04:16.077Z,100882.38
2023-01-02T12:06:57.708Z,100891.31
2023-01-02T12:09:58.661Z,100891.34
2023-01-02T12:12:25.359Z,100892.81
2023-01-02T12:14:55.194Z,100896.88
2023-01-02T12:18:01.488Z,100903.19
2023-01-02T12:20:53.710Z,100903.22
2023-01-02T12:23:39.181Z,100904.84
2023-01-02T12:26:27.480Z,100917.44
2023-01-02T12:29:11.282Z,100916.81
2023-01-02T12:31:50.142Z,100928.63
2023-01-02T12:34:32.875Z,100928.59
2023-01-02T12:37:05.485Z,100920.13
2023-01-02T12:39:51.715Z,100922.41
2023-01-02T12:43:18.520Z,100922.06
2023-01-02T12:46:12.960Z,100933.38
2023-01-02T12:49:01.098Z,100931.09
2023-01-02T12:51:47.497Z,100936.88
2023-01-02T12:54:25.396Z,100947.53
2023-01-02T12:57:44.450Z,100956.84
2023-01-02T13:00:32.506Z,100967.53
2023-01-02T13:03:22.906Z,100963.38
2023-01-02T13:06:43.949Z,100966.63
2023-01-02T13:09:05.173Z,100957.50
2023-01-02T13:11:40.690Z,100961.56
2023-01-02T13:14:10.863Z,100970.84
2023-01-02T13:16:38.813Z,100982.59
2023-01-02T13:19:40.264Z,100988.13
2023-01-02T13:22:21.401Z,100985.81
2023-01-02T13:24:50.837Z,100990.59
2023-01-02T13:27:17.814Z,100982.38
2023-01-02T13:29:45.804Z,100986.25
2023-01-02T13:32:14.609Z,100989.91
2023-01-02T13:34:53.849Z,100989.97
2023-01-02T13:37:25.281Z,100984.09
2023-01-02T13:39:58.142Z,101001.47
2023-01-02T13:42:48.469Z,100996.91
2023-01-02T13:45:18.224Z,100987.28
2023-01-02T13:47:57.063Z,100996.84
2023-01-02T13:50:37.866Z,101001.00
2023-01-02T13:53:10.811Z,101010.34
2023-01-02T13:55:37.504Z,101014.63
2023-01-02T13:58:13.379Z,101024.69
2023-01-02T14:00:42.538Z,101025.72
2023-01-02T14:03:21.612Z,101035.25
2023-01-02T14:06:00.417Z,101042.81
2023-01-02T14:08:34.278Z,101040.88
2023-01-02T14:11:10.188Z,101045.75
2023-01-02T14:13:52.021Z,101042.13
2023-01-02T14:16:41.087Z,101038.13
2023-01-02T14:19:16.623Z,101051.78
2023-01-02T14:21:48.082Z,101060.44
2023-01-02T14:24:31.897Z,101064.72
2023-01-02T14:27:24.422Z,101057.59
2023-01-02T14:29:58.137Z,101053.78
2023-01-02T14:32:36.380Z,101055.59
2023-01-02T14:35:07.104Z,101054.47
2023-01-02T14:37:48.224Z,101054.81
2023-01-02T14:40:23.697Z,101058.94
2023-01-02T14:43:12.100Z,101052.63
2023-01-02T14:45:45.963Z,101063.34
2023-01-02T14:48:18.710Z,101063.66
2023-01-02T14:50:48.496Z,101064.56
2023-01-02T14:53:22.401Z,101065.66
2023-01-02T14:55:53.145Z,101066.03
2023-01-02T14:58:48.025Z,101080.88
2023-01-02T15:01:42.296Z,101079.25
2023-01-02T15:04:13.404Z,101089.19
2023-01-02T15:06:43.467Z,101092.28
2023-01-02T15:09:36.728Z,101089.28
2023-01-02T15:12:39.020Z,101090.25
2023-01-02T15:15:06.181Z,101083.25
2023-01-02T15:17:33.077Z,101089.09
2023-01-02T15:20:01.524Z,101106.38
2023-01-02T15:22:33.430Z,101108.38
2023-01-02T15:25:00.008Z,101111.34
2023-01-02T15:27:31.954Z,101117.00
2023-01-02T15:30:01.191Z,101113.69
2023-01-02T15:32:34.294Z,101112.34
2023-01-02T15:35:10.399Z,101126.94
2023-01-02T15:37:42.983Z,101131.25
2023-01-02T15:40:17.130Z,101141.75
2023-01-02T15:43:03.366Z,101150.22
2023-01-02T15:45:31.046Z,101137.47
2023-01-02T15:47:58.387Z,101138.00
2023-01-02T15:50:27.993Z,101144.03
2023-01-02T15:52:59.455Z,101145.88
2023-01-02T15:55:30.260Z,101143.78
2023-01-02T15:57:57.128Z,101136.69
2023-01-02T16:00:37.000Z,101139.53
2023-01-02T16:03:04.767Z,101137.66
2023-01-02T16:05:54.830Z,101147.06
2023-01-02T16:08:26.926Z,101143.50
2023-01-02T16:11:01.219Z,101147.63
2023-01-02T16:14:00.227Z,101158.09
2023-01-02T16:16:52.890Z,101155.47
2023-01-02T16:19:57.938Z,101176.09
2023-01-02T16:22:42.162Z,101165.75
2023-01-02T16:25:19.250Z,101171.34
2023-01-02T16:28:03.998Z,101181.44
2023-01-02T16:30:50.665Z,101181.16
2023-01-02T16:33:24.356Z,101194.56
2023-01-02T16:35:59.904Z,101189.38
2023-01-02T16:38:28.050Z,101200.94
2023-01-02T16:41:12.551Z,101196.13
2023-01-02T16:43:46.016Z,101212.47
2023-01-02T16:46:15.949Z,101217.13
2023-01-02T16:48:43.914Z,101221.59
2023-01-02T16:51:12.927Z,101224.19
2023-01-02T16:53:43.332Z,101220.72
2023-01-02T16:56:11.632Z,101232.41
2023-01-02T16:58:38.600Z,101242.28
2023-01-02T17:01:06.020Z,101239.16
2023-01-02T17:03:32.697Z,101240.44
2023-01-02T17:06:03.201Z,101237.25
2023-01-02T17:08:33.317Z,101250.47
2023-01-02T17:11:00.869Z,101256.06
2023-01-02T17:13:28.686Z,101258.28
2023-01-02T17:15:56.001Z,101265.78
2023-01-02T17:18:23.474Z,101267.28
2023-01-02T17:20:50.505Z,101263.91
2023-01-02T17:23:21.116Z,101277.06
2023-01-02T17:25:47.851Z,101280.13
2023-01-02T17:28:15.052Z,101279.00
2023-01-02T17:30:44.281Z,101282.06
2023-01-02T17:33:11.751Z,101280.28
2023-01-02T17:35:38.587Z,101286.06
2023-01-02T17:38:05.226Z,101292.41
2023-01-02T17:40:31.811Z,101290.16
2023-01-02T17:42:58.693Z,101302.91
2023-01-02T17:45:25.464Z,101288.47
2023-01-02T17:48:06.133Z,101294.38
2023-01-02T17:50:36.996Z,101293.78
2023-01-02T17:53:06.796Z,101293.19
2023-01-02T17:55:33.392Z,101289.81
2023-01-02T17:58:00.913Z,101294.16
2023-01-02T18:00:28.294Z,101293.69
2023-01-02T18:02:55.100Z,101299.56
2023-01-02T18:05:22.803Z,101296.84
2023-01-02T18:07:49.644Z,101300.66
2023-01-02T18:10:19.975Z,101303.81
2023-01-02T18:12:49.567Z,101312.47
2023-01-02T18:15:20.694Z,101330.97
2023-01-02T18:17:48.257Z,101330.59
2023-01-02T18:20:19.020Z,101339.56
2023-01-02T18:22:49.751Z,101350.09
2023-01-02T18:25:20.948Z,101349.25
2023-01-02T18:27:48.711Z,101351.84
2023-01-02T18:30:22.066Z,101347.06
2023-01-02T18:32:50.053Z,101356.34
2023-01-02T18:38:39.588Z,101365.19
2023-01-02T18:41:18.742Z,101371.63
2023-01-02T18:43:46.193Z,101371.72
2023-01-02T18:46:23.235Z,101369.13
2023-01-02T18:48:49.937Z,101388.03
2023-01-02T18:51:22.004Z,101388.34
2023-01-02T18:53:51.035Z,101398.53
2023-01-02T18:56:25.496Z,101395.59
2023-01-02T18:59:06.874Z,101396.00
2023-01-02T19:01:41.737Z,101387.63
2023-01-02T19:04:24.429Z,101398.28
2023-01-02T19:06:59.914Z,101399.59
2023-01-02T19:09:34.421Z,101403.06
2023-01-02T19:12:44.528Z,101412.06
2023-01-02T19:15:35.569Z,101409.97
2023-01-02T19:18:21.679Z,101415.66
2023-01-02T19:21:12.275Z,101407.19
2023-01-02T19:23:49.432Z,101428.69
2023-01-02T19:26:36.152Z,101432.41
2023-01-02T19:29:12.163Z,101431.00
2023-01-02T19:31:47.820Z,101446.78
2023-01-02T19:34:44.815Z,101449.84
2023-01-02T19:37:11.406Z,101452.75
2023-01-02T19:39:57.858Z,101455.25
2023-01-02T19:42:28.251Z,101453.69
2023-01-02T19:45:03.367Z,101460.59
2023-01-02T19:47:35.006Z,101474.00
2023-01-02T19:50:02.838Z,101479.72
2023-01-02T19:52:29.934Z,101481.09
2023-01-02T19:54:57.039Z,101487.78
2023-01-02T19:57:24.245Z,101501.09
2023-01-02T19:59:52.564Z,101500.78
2023-01-02T20:02:21.638Z,101504.50
2023-01-02T20:04:50.181Z,101508.44
2023-01-02T20:07:17.142Z,101505.66
2023-01-02T20:09:44.746Z,101507.44
2023-01-02T20:12:30.220Z,101512.28
2023-01-02T20:14:58.654Z,101507.84
2023-01-02T20:17:25.706Z,101523.06
2023-01-02T20:19:52.243Z,101515.47
2023-01-02T20:22:19.044Z,101522.34
2023-01-02T20:24:46.220Z,101522.81
2023-01-02T20:27:15.127Z,101524.66
2023-01-02T20:29:42.447Z,101531.38
2023-01-02T20:32:09.047Z,101532.66
2023-01-02T20:34:35.822Z,101535.91
2023-01-02T20:37:03.053Z,101538.06
2023-01-02T20:39:29.658Z,101541.69
2023-01-02T20:41:56.233Z,101538.97
2023-01-02T20:44:23.096Z,101539.56
2023-01-02T20:46:49.768Z,101547.75
2023-01-02T20:49:16.819Z,101559.91
2023-01-02T20:51:43.462Z,101563.28
2023-01-02T20:54:10.771Z,101575.75
2023-01-02T20:56:43.240Z,101575.53
2023-01-02T20:59:09.894Z,101578.59
2023-01-02T21:01:36.676Z,101587.66
2023-01-02T21:04:04.016Z,101585.97
2023-01-02T21:06:30.829Z,101585.31
2023-01-02T21:08:57.671Z,101595.69
2023-01-02T21:11:24.180Z,101602.53
2023-01-02T21:13:51.115Z,101599.03
2023-01-02T21:16:17.858Z,101602.66
2023-01-02T21:18:44.686Z,101601.72
2023-01-02T21:21:17.745Z,101604.78
2023-01-02T21:23:44.668Z,101599.03
2023-01-02T21:26:14.384Z,101616.25
2023-01-02T21:28:44.094Z,101616.53
2023-01-02T21:31:11.675Z,101622.25
2023-01-02T21:33:39.165Z,101624.53
2023-01-02T21:36:08.738Z,101631.69
2023-01-02T21:38:36.278Z,101633.97
2023-01-02T21:41:21.535Z,101638.84
2023-01-02T21:43:48.503Z,101640.53
2023-01-02T21:46:15.630Z,101640.19
2023-01-02T21:48:42.829Z,101643.00
2023-01-02T21:51:09.455Z,101642.50
2023-01-02T21:53:36.403Z,101655.97
2023-01-02T21:56:03.226Z,101660.47
2023-01-02T21:58:29.807Z,101655.19
2023-01-02T22:00:56.472Z,101670.50
2023-01-02T22:03:23.200Z,101659.25
2023-01-02T22:05:50.547Z,101668.09
2023-01-02T22:08:17.243Z,101670.19
2023-01-02T22:10:43.779Z,101673.22
2023-01-02T22:13:10.281Z,101667.88
2023-01-02T22:15:36.863Z,101678.53
2023-01-02T22:18:03.607Z,101683.13
2023-01-02T22:20:30.332Z,101693.09
2023-01-02T22:22:56.958Z,101684.38
2023-01-02T22:25:23.557Z,101697.03
2023-01-02T22:27:50.176Z,101691.13
2023-01-02T22:30:24.737Z,101703.78
2023-01-02T22:32:54.458Z,101698.59
2023-01-02T22:35:21.271Z,101706.13
2023-01-02T22:37:48.005Z,101710.63
2023-01-02T22:40:14.904Z,101718.69
2023-01-02T22:43:05.746Z,101714.91
2023-01-02T22:45:41.129Z,101713.44
2023-01-02T22:48:17.138Z,101711.41
2023-01-02T22:50:45.421Z,101717.56
2023-01-02T22:53:22.819Z,101719.81
2023-01-02T22:55:50.098Z,101713.28
2023-01-02T22:58:17.248Z,101721.75
2023-01-02T23:00:45.793Z,101737.97
2023-01-02T23:03:14.323Z,101728.50
2023-01-02T23:05:41.613Z,101733.25
2023-01-02T23:08:08.369Z,101744.19
2023-01-02T23:10:35.111Z,101748.25
2023-01-02T23:13:02.071Z,101753.97
2023-01-02T23:15:28.925Z,101746.97
2023-01-02T23:18:14.258Z,101755.38
2023-01-02T23:20:40.868Z,101766.31
2023-01-02T23:23:07.629Z,101768.84
2023-01-02T23:25:34.390Z,101773.69
2023-01-02T23:28:00.930Z,101774.81
2023-01-02T23:30:27.570Z,101775.72
2023-01-02T23:32:54.143Z,101786.22
2023-01-02T23:35:20.787Z,101789.44
2023-01-02T23:37:47.359Z,101789.06
2023-01-02T23:40:13.877Z,101795.91
2023-01-02T23:42:40.428Z,101785.34
2023-01-02T23:45:07.656Z,101787.53
2023-01-02T23:47:37.382Z,101787.59
2023-01-02T23:50:04.072Z,101796.66
2023-01-02T23:52:30.659Z,101804.47
2023-01-02T23:54:57.218Z,101796.94
2023-01-02T23:57:23.755Z,101797.16
2023-01-02T23:59:50.267Z,101807.25
